Airfield :
LOGIN :

Register | Disclaimer

   EN    FR    IT 

 










Legend :    VFR   Marginal VFR   IFR   Intensive IFR   Very Intensive IFR
Visi :
Ceiling :
>= 8 km
>= 3000ft
5 to 8 km
1000 to 3000 ft
1500m to 5 km
500 to 1000 ft
800 to 1500m
200 to 500 ft
< 800m
< 200 ft
Symbols :   Thunderstorms  Fog  Heavy snow  Heavy precipitations  Wind > 20 kt
SIGMETs :     Misc.  Thunderstorms  Icing  Turbulence  Mountain Waves  Volcanic Ashes







- Airport Elevation : 36 ft
- IATA code : LTQ
- Download approach charts


LFAT - Le Touquet

CURRENT METAR :
  • 242030Z AUTO 21007KT 180V240 9999 OVC048 12/11 Q1013

EXPIRED METARs :
  • 242000Z AUTO 22007KT 180V260 9999 SCT035 BKN043 OVC050 12/10 Q1013
  • 241930Z AUTO 23006KT 200V260 9999 BKN031 OVC049 12/11 Q1013
  • 241900Z AUTO 25005KT 220V290 9999 BKN026 OVC049 12/10 Q1013
  • 241830Z AUTO 24003KT 210V280 9999 FEW005 SCT022 OVC031 12/11 Q1013
  • 241800Z AUTO 26005KT 210V290 9999 BKN006 OVC030 12/11 Q1014 TEMPO 4000 DZ OVC010

TAF TAF LFAT
Valid from the 24 at 15:00 until the 25 at 00:00 UTC


241400Z 2415/2424 23012KT 9999 BKN030
PROB30
TEMPO 2415/2424 4000 DZ OVC010
BECMG 2422/2424 BKN005 OVC013
ATIS : +33 3 21 06 62 84
No reported NOTAMs for that airfield.



MET'MAP, your aeronautical weather chart ! - Copyright ORBIFLY December 2007 - Disclaimer

ORBIFLY MET'MAP TEAM :

Programming & Development : Alexandra Zaïnal
Concept & Development : Baudouin d'Aumeries
Co-Development & Prog : Marc-Olivier Méhu
Technical & hardware support : Manuel Goepfert

Contact : metmap@orbifly.com




SOURCES & CREDITS :

   NOAA